Terminal Aerodrome Forecast
Issued by NWS

Home | Current Version | Previous Version | Text Only | Print | Product List | Glossary On
Versions: 1 2 3 4 5 6 7 8 9 10 11 12 13 14 15 16 17
000
FTUS43 KMPX 020533
TAFRNH
TAF
KRNH 020533Z 0206/0306 15003KT 6SM BR SCT070 BKN150 OVC250
      TEMPO 0209/0212 4SM -TSRA BKN050CB OVC100
     FM021200 16006KT P6SM BKN080
     FM022000 16010KT P6SM VCSH SCT050
     FM030100 15006KT P6SM FEW250=

USA.gov is the U.S. government's official web portal to all federal, state and local government web resources and services.